createdAt,value
2022-08-24T00:01:38.179Z,23.50
2022-08-24T00:04:04.053Z,23.30
2022-08-24T00:06:29.651Z,23.30
2022-08-24T00:08:55.271Z,23.20
2022-08-24T00:11:19.036Z,23.20
2022-08-24T00:13:43.176Z,23.30
2022-08-24T00:16:07.142Z,23.30
2022-08-24T00:18:31.501Z,23.20
2022-08-24T00:20:56.725Z,23.20
2022-08-24T00:23:20.434Z,23.10
2022-08-24T00:25:44.871Z,23.10
2022-08-24T00:28:08.703Z,23.10
2022-08-24T00:30:32.500Z,23.10
2022-08-24T00:32:56.203Z,23.00
2022-08-24T00:35:20.835Z,23.20
2022-08-24T00:37:46.226Z,23.10
2022-08-24T00:40:15.880Z,23.10
2022-08-24T00:42:40.051Z,22.90
2022-08-24T00:45:04.169Z,22.90
2022-08-24T00:47:33.806Z,22.80
2022-08-24T00:50:01.489Z,22.80
2022-08-24T00:52:32.873Z,22.90
2022-08-24T00:55:02.235Z,23.00
2022-08-24T00:57:32.109Z,22.90
2022-08-24T01:00:00.452Z,22.90
2022-08-24T01:02:27.290Z,22.80
2022-08-24T01:05:00.899Z,22.70
2022-08-24T01:07:28.534Z,22.80
2022-08-24T01:09:53.656Z,22.70
2022-08-24T01:12:18.860Z,22.60
2022-08-24T01:14:42.499Z,22.70
2022-08-24T01:17:23.910Z,22.60
2022-08-24T01:19:52.300Z,22.70
2022-08-24T01:22:38.550Z,22.60
2022-08-24T01:25:03.702Z,22.50
2022-08-24T01:27:28.346Z,22.50
2022-08-24T01:29:53.386Z,22.70
2022-08-24T01:32:20.914Z,22.50
2022-08-24T01:34:45.251Z,22.60
2022-08-24T01:37:12.717Z,22.40
2022-08-24T01:39:42.052Z,22.40
2022-08-24T01:42:08.024Z,22.30
2022-08-24T01:44:35.836Z,22.40
2022-08-24T01:46:59.532Z,22.30
2022-08-24T01:49:30.636Z,22.30
2022-08-24T01:51:56.795Z,22.20
2022-08-24T01:54:20.754Z,22.20
2022-08-24T01:56:45.070Z,22.20
2022-08-24T01:59:12.488Z,22.20
2022-08-24T02:01:43.267Z,22.30
2022-08-24T02:04:08.790Z,22.10
2022-08-24T02:06:33.742Z,22.10
2022-08-24T02:08:57.430Z,22.20
2022-08-24T02:11:21.695Z,22.10
2022-08-24T02:13:45.397Z,22.30
2022-08-24T02:16:10.607Z,22.20
2022-08-24T02:18:35.235Z,22.10
2022-08-24T02:21:00.071Z,22.00
2022-08-24T02:23:25.152Z,22.00
2022-08-24T02:25:50.204Z,22.10
2022-08-24T02:28:14.407Z,21.90
2022-08-24T02:30:38.361Z,22.00
2022-08-24T02:33:04.190Z,21.90
2022-08-24T02:35:29.794Z,21.90
2022-08-24T02:37:53.998Z,21.90
2022-08-24T02:40:18.163Z,21.80
2022-08-24T02:42:42.815Z,21.80
2022-08-24T02:45:08.361Z,21.80
2022-08-24T02:47:38.301Z,21.80
2022-08-24T02:50:06.819Z,21.70
2022-08-24T02:52:30.786Z,21.80
2022-08-24T02:54:54.656Z,21.70
2022-08-24T02:57:18.582Z,21.70
2022-08-24T02:59:42.367Z,21.70
2022-08-24T03:02:06.674Z,21.80
2022-08-24T03:04:30.437Z,21.70
2022-08-24T03:06:57.422Z,21.70
2022-08-24T03:09:23.376Z,21.70
2022-08-24T03:11:47.847Z,21.60
2022-08-24T03:14:13.199Z,21.60
2022-08-24T03:16:38.608Z,21.70
2022-08-24T03:19:02.546Z,21.50
2022-08-24T03:21:30.018Z,21.50
2022-08-24T03:23:55.165Z,21.50
2022-08-24T03:26:19.112Z,21.50
2022-08-24T03:28:44.661Z,21.50
2022-08-24T03:31:09.745Z,21.50
2022-08-24T03:33:34.468Z,21.60
2022-08-24T03:35:58.254Z,21.50
2022-08-24T03:38:23.142Z,21.40
2022-08-24T03:40:48.859Z,21.50
2022-08-24T03:43:33.260Z,21.40
2022-08-24T03:45:57.258Z,21.40
2022-08-24T03:48:21.493Z,21.40
2022-08-24T03:50:46.677Z,21.50
2022-08-24T03:53:11.168Z,21.40
2022-08-24T03:55:34.879Z,21.40
2022-08-24T03:58:00.002Z,21.50
2022-08-24T04:00:24.610Z,21.40
2022-08-24T04:02:54.181Z,21.30
2022-08-24T04:05:20.085Z,21.40
2022-08-24T04:07:44.221Z,21.40
2022-08-24T04:10:09.434Z,21.60
2022-08-24T04:12:33.079Z,21.50
2022-08-24T04:14:58.174Z,21.40
2022-08-24T04:17:24.454Z,21.30
2022-08-24T04:19:58.449Z,21.30
2022-08-24T04:22:34.240Z,21.20
2022-08-24T04:24:59.814Z,21.30
2022-08-24T04:27:25.435Z,21.30
2022-08-24T04:29:49.371Z,21.30
2022-08-24T04:32:15.613Z,21.30
2022-08-24T04:34:39.929Z,21.30
2022-08-24T04:37:03.659Z,21.30
2022-08-24T04:39:27.355Z,21.30
2022-08-24T04:41:51.020Z,21.30
2022-08-24T04:44:17.201Z,21.10
2022-08-24T04:46:41.097Z,21.10
2022-08-24T04:49:07.192Z,21.10
2022-08-24T04:51:36.200Z,21.10
2022-08-24T04:54:00.536Z,21.20
2022-08-24T04:56:26.341Z,21.30
2022-08-24T04:58:53.710Z,21.20
2022-08-24T05:01:22.096Z,21.20
2022-08-24T05:03:47.853Z,21.20
2022-08-24T05:06:15.456Z,21.30
2022-08-24T05:08:39.730Z,21.30
2022-08-24T05:11:08.334Z,21.30
2022-08-24T05:13:32.344Z,21.40
2022-08-24T05:15:56.069Z,21.40
2022-08-24T05:18:20.421Z,21.30
2022-08-24T05:20:46.429Z,21.20
2022-08-24T05:23:12.914Z,21.30
2022-08-24T05:25:37.281Z,21.40
2022-08-24T05:28:01.049Z,21.30
2022-08-24T05:30:25.044Z,21.30
2022-08-24T05:32:49.312Z,21.40
2022-08-24T05:35:14.126Z,21.40
2022-08-24T05:37:39.746Z,21.50
2022-08-24T05:40:18.806Z,21.60
2022-08-24T05:42:50.437Z,21.70
2022-08-24T05:45:14.375Z,21.90
2022-08-24T05:47:38.889Z,22.10
2022-08-24T05:50:15.059Z,22.00
2022-08-24T05:52:39.552Z,22.00
2022-08-24T05:55:04.325Z,21.90
2022-08-24T05:57:34.550Z,22.00
2022-08-24T06:00:11.273Z,22.10
2022-08-24T06:02:39.429Z,22.20
2022-08-24T06:05:03.250Z,22.30
2022-08-24T06:07:27.050Z,22.40
2022-08-24T06:09:54.201Z,22.70
2022-08-24T06:12:18.697Z,22.80
2022-08-24T06:14:47.937Z,22.90
2022-08-24T06:17:15.867Z,23.00
2022-08-24T06:19:40.611Z,23.20
2022-08-24T06:22:05.198Z,23.10
2022-08-24T06:24:49.369Z,23.10
2022-08-24T06:27:23.964Z,23.20
2022-08-24T06:29:53.285Z,23.30
2022-08-24T06:32:36.223Z,23.50
2022-08-24T06:35:00.263Z,23.60
2022-08-24T06:37:26.557Z,23.80
2022-08-24T06:39:55.042Z,23.90
2022-08-24T06:42:25.555Z,24.10
2022-08-24T06:44:49.511Z,24.30
2022-08-24T06:47:19.953Z,24.20
2022-08-24T06:49:45.961Z,24.40
2022-08-24T06:52:11.033Z,24.10
2022-08-24T06:54:35.005Z,24.10
2022-08-24T06:57:00.947Z,24.10
2022-08-24T06:59:27.034Z,24.40
2022-08-24T07:01:51.712Z,24.30
2022-08-24T07:04:17.012Z,24.30
2022-08-24T07:06:58.976Z,24.20
2022-08-24T07:09:24.902Z,24.00
2022-08-24T07:11:49.078Z,24.10
2022-08-24T07:14:12.850Z,24.40
2022-08-24T07:16:38.019Z,24.60
2022-08-24T07:19:03.694Z,24.70
2022-08-24T07:21:33.440Z,24.80
2022-08-24T07:24:00.040Z,24.90
2022-08-24T07:26:27.216Z,24.80
2022-08-24T07:28:51.561Z,24.90
2022-08-24T07:31:15.935Z,25.00
2022-08-24T07:33:48.631Z,25.00
2022-08-24T07:36:12.860Z,25.10
2022-08-24T07:38:47.644Z,24.90
2022-08-24T07:41:38.073Z,25.20
2022-08-24T07:44:00.061Z,25.00
2022-08-24T07:46:23.945Z,25.30
2022-08-24T07:49:00.063Z,25.40
2022-08-24T07:51:34.236Z,25.70
2022-08-24T07:53:59.267Z,25.80
2022-08-24T07:56:28.469Z,25.90
2022-08-24T07:58:54.397Z,25.80
2022-08-24T08:01:19.831Z,25.90
2022-08-24T08:03:43.708Z,26.10
2022-08-24T08:06:16.141Z,26.40
2022-08-24T08:08:42.798Z,26.30
2022-08-24T08:11:10.259Z,26.50
2022-08-24T08:13:36.103Z,26.60
2022-08-24T08:16:01.579Z,26.80
2022-08-24T08:18:26.241Z,26.80
2022-08-24T08:20:51.161Z,26.60
2022-08-24T08:23:32.065Z,26.60
2022-08-24T08:26:14.406Z,26.60
2022-08-24T08:28:46.900Z,26.50
2022-08-24T08:31:10.638Z,26.40
2022-08-24T08:33:37.110Z,26.50
2022-08-24T08:36:08.147Z,26.50
2022-08-24T08:38:35.563Z,26.70
2022-08-24T08:41:26.744Z,26.60
2022-08-24T08:44:15.964Z,26.80
2022-08-24T08:46:53.077Z,26.90
2022-08-24T08:49:51.185Z,27.10
2022-08-24T08:53:09.986Z,27.20
2022-08-24T08:55:38.722Z,27.30
2022-08-24T08:58:25.129Z,27.40
2022-08-24T09:01:01.809Z,27.20
2022-08-24T09:04:21.374Z,27.30
2022-08-24T09:07:35.715Z,27.30
2022-08-24T09:10:29.566Z,27.30
2022-08-24T09:13:22.418Z,27.30
2022-08-24T09:16:10.367Z,27.40
2022-08-24T09:18:56.263Z,27.60
2022-08-24T09:21:40.946Z,27.50
2022-08-24T09:24:23.623Z,27.60
2022-08-24T09:27:06.874Z,27.70
2022-08-24T09:29:47.386Z,27.70
2022-08-24T09:32:37.727Z,27.80
2022-08-24T09:35:05.781Z,28.00
2022-08-24T09:37:59.922Z,28.00
2022-08-24T09:40:40.625Z,28.10
2022-08-24T09:43:47.140Z,28.10
2022-08-24T09:47:18.499Z,28.30
2022-08-24T09:50:41.266Z,28.50
2022-08-24T09:54:00.292Z,28.70
2022-08-24T09:56:42.605Z,28.70
2022-08-24T09:59:41.054Z,28.70
2022-08-24T10:02:28.763Z,28.80
2022-08-24T10:05:05.600Z,28.80
2022-08-24T10:07:43.027Z,29.00
2022-08-24T10:10:31.173Z,29.00
2022-08-24T10:13:15.111Z,29.30
2022-08-24T10:15:49.848Z,29.40
2022-08-24T10:18:35.212Z,29.30
2022-08-24T10:21:15.199Z,29.20
2022-08-24T10:24:16.162Z,29.00
2022-08-24T10:27:04.388Z,29.10
2022-08-24T10:29:45.630Z,29.00
2022-08-24T10:32:26.278Z,29.20
2022-08-24T10:35:11.801Z,29.20
2022-08-24T10:38:27.075Z,29.20
2022-08-24T10:41:06.851Z,29.20
2022-08-24T10:44:04.436Z,29.20
2022-08-24T10:46:54.378Z,29.30
2022-08-24T10:50:12.189Z,29.20
2022-08-24T10:53:17.189Z,29.50
2022-08-24T10:55:42.570Z,29.30
2022-08-24T10:58:46.634Z,29.30
2022-08-24T11:01:19.750Z,29.30
2022-08-24T11:03:54.514Z,29.40
2022-08-24T11:06:20.366Z,29.70
2022-08-24T11:08:56.306Z,29.70
2022-08-24T11:11:28.627Z,30.10
2022-08-24T11:13:58.982Z,30.40
2022-08-24T11:16:30.438Z,30.40
2022-08-24T11:18:56.823Z,30.60
2022-08-24T11:21:36.270Z,30.40
2022-08-24T11:24:06.411Z,30.40
2022-08-24T11:26:30.704Z,30.40
2022-08-24T11:29:01.186Z,30.80
2022-08-24T11:31:35.998Z,31.00
2022-08-24T11:34:03.728Z,31.00
2022-08-24T11:36:30.377Z,31.10
2022-08-24T11:39:17.760Z,31.10
2022-08-24T11:41:55.040Z,30.90
2022-08-24T11:44:41.118Z,31.00
2022-08-24T11:47:23.508Z,31.10
2022-08-24T11:49:56.604Z,31.10
2022-08-24T11:52:40.795Z,31.30
2022-08-24T11:55:13.942Z,31.20
2022-08-24T11:57:47.681Z,31.10
2022-08-24T12:00:21.635Z,31.00
2022-08-24T12:02:59.248Z,31.10
2022-08-24T12:05:31.520Z,31.20
2022-08-24T12:08:08.069Z,31.10
2022-08-24T12:10:46.047Z,31.20
2022-08-24T12:13:23.739Z,31.10
2022-08-24T12:15:52.767Z,31.20
2022-08-24T12:18:28.402Z,31.20
2022-08-24T12:20:53.561Z,31.60
2022-08-24T12:23:27.225Z,31.70
2022-08-24T12:26:04.671Z,31.50
2022-08-24T12:28:37.757Z,31.50
2022-08-24T12:31:12.319Z,31.50
2022-08-24T12:33:39.415Z,31.70
2022-08-24T12:36:11.389Z,31.80
2022-08-24T12:38:39.930Z,31.80
2022-08-24T12:41:19.296Z,31.80
2022-08-24T12:43:49.996Z,31.80
2022-08-24T12:46:17.304Z,31.70
2022-08-24T12:48:46.378Z,31.80
2022-08-24T12:51:23.646Z,32.00
2022-08-24T12:54:25.852Z,32.40
2022-08-24T12:57:12.105Z,32.10
2022-08-24T12:59:43.546Z,32.20
2022-08-24T13:02:27.791Z,32.30
2022-08-24T13:05:01.638Z,31.90
2022-08-24T13:07:31.855Z,32.00
2022-08-24T13:10:14.619Z,31.90
2022-08-24T13:13:14.412Z,32.00
2022-08-24T13:16:03.034Z,31.90
2022-08-24T13:19:13.564Z,31.90
2022-08-24T13:21:55.098Z,32.00
2022-08-24T13:24:55.287Z,32.00
2022-08-24T13:28:08.433Z,32.00
2022-08-24T13:31:20.407Z,31.80
2022-08-24T13:33:50.532Z,32.00
2022-08-24T13:36:53.635Z,31.90
2022-08-24T13:39:39.310Z,31.90
2022-08-24T13:42:15.866Z,32.10
2022-08-24T13:45:16.350Z,32.20
2022-08-24T13:47:59.262Z,32.30
2022-08-24T13:50:36.099Z,32.10
2022-08-24T13:53:26.318Z,32.20
2022-08-24T13:55:54.567Z,32.40
2022-08-24T13:58:36.465Z,32.30
2022-08-24T14:01:20.385Z,32.10
2022-08-24T14:04:13.995Z,32.00
2022-08-24T14:06:50.755Z,31.90
2022-08-24T14:09:37.553Z,31.70
2022-08-24T14:12:43.481Z,31.90
2022-08-24T14:15:24.671Z,32.30
2022-08-24T14:17:58.896Z,32.30
2022-08-24T14:21:05.719Z,32.20
2022-08-24T14:23:47.164Z,32.10
2022-08-24T14:27:10.646Z,32.40
2022-08-24T14:29:45.250Z,32.70
2022-08-24T14:33:04.074Z,32.70
2022-08-24T14:35:39.724Z,32.50
2022-08-24T14:38:29.147Z,32.70
2022-08-24T14:41:26.769Z,32.40
2022-08-24T14:44:09.749Z,32.50
2022-08-24T14:46:46.343Z,32.50
2022-08-24T14:49:21.686Z,32.70
2022-08-24T14:52:02.312Z,32.70
2022-08-24T14:54:40.939Z,32.70
2022-08-24T14:57:28.068Z,32.60
2022-08-24T15:00:07.345Z,32.60
2022-08-24T15:03:11.839Z,32.50
2022-08-24T15:05:45.674Z,32.70
2022-08-24T15:08:39.319Z,32.30
2022-08-24T15:11:12.667Z,32.70
2022-08-24T15:13:48.304Z,32.70
2022-08-24T15:16:16.234Z,32.40
2022-08-24T15:18:46.563Z,32.50
2022-08-24T15:21:38.213Z,32.60
2022-08-24T15:24:16.645Z,32.30
2022-08-24T15:27:02.760Z,32.20
2022-08-24T15:29:31.161Z,32.30
2022-08-24T15:32:05.143Z,32.00
2022-08-24T15:34:45.605Z,32.00
2022-08-24T15:37:11.697Z,32.00
2022-08-24T15:39:35.308Z,31.80
2022-08-24T15:41:59.562Z,32.00
2022-08-24T15:44:26.345Z,31.90
2022-08-24T15:46:55.651Z,32.10
2022-08-24T15:49:23.923Z,32.10
2022-08-24T15:51:53.599Z,32.20
2022-08-24T15:54:33.457Z,32.30
2022-08-24T15:57:01.655Z,32.30
2022-08-24T15:59:29.882Z,32.20
2022-08-24T16:02:31.521Z,32.30
2022-08-24T16:05:14.174Z,32.40
2022-08-24T16:08:07.593Z,32.60
2022-08-24T16:10:39.196Z,32.80
2022-08-24T16:13:11.704Z,32.80
2022-08-24T16:15:35.835Z,32.80
2022-08-24T16:18:00.324Z,32.60
2022-08-24T16:20:35.862Z,32.40
2022-08-24T16:23:03.855Z,32.10
2022-08-24T16:25:32.728Z,31.90
2022-08-24T16:28:07.685Z,32.00
2022-08-24T16:30:46.666Z,32.00
2022-08-24T16:33:44.455Z,32.20
2022-08-24T16:36:10.905Z,32.10
2022-08-24T16:38:36.475Z,31.80
2022-08-24T16:41:02.922Z,32.00
2022-08-24T16:43:26.784Z,31.80
2022-08-24T16:45:50.853Z,32.00
2022-08-24T16:48:14.611Z,32.00
2022-08-24T16:50:38.227Z,32.10
2022-08-24T16:53:01.908Z,32.00
2022-08-24T16:55:28.372Z,32.10
2022-08-24T16:57:53.449Z,32.10
2022-08-24T17:00:22.096Z,32.00
2022-08-24T17:02:48.207Z,32.00
2022-08-24T17:05:12.494Z,32.30
2022-08-24T17:07:36.325Z,32.30
2022-08-24T17:10:02.552Z,32.30
2022-08-24T17:12:27.347Z,32.20
2022-08-24T17:14:52.359Z,32.40
2022-08-24T17:17:21.378Z,32.30
2022-08-24T17:19:45.943Z,32.30
2022-08-24T17:22:12.995Z,32.40
2022-08-24T17:24:40.029Z,32.20
2022-08-24T17:27:04.990Z,32.20
2022-08-24T17:29:29.189Z,32.00
2022-08-24T17:31:54.735Z,32.00
2022-08-24T17:34:20.487Z,32.00
2022-08-24T17:36:45.963Z,32.10
2022-08-24T17:39:09.575Z,32.20
2022-08-24T17:41:33.236Z,32.30
2022-08-24T17:43:57.502Z,32.10
2022-08-24T17:46:22.473Z,32.10
2022-08-24T17:48:48.706Z,32.00
2022-08-24T17:51:13.871Z,31.80
2022-08-24T17:53:37.474Z,31.70
2022-08-24T17:56:01.225Z,31.90
2022-08-24T17:58:24.911Z,31.90
2022-08-24T18:00:51.749Z,31.80
2022-08-24T18:03:16.731Z,31.80
2022-08-24T18:05:42.427Z,31.70
2022-08-24T18:08:07.647Z,31.70
2022-08-24T18:10:33.365Z,31.60
2022-08-24T18:12:58.266Z,31.60
2022-08-24T18:15:22.013Z,31.50
2022-08-24T18:17:58.062Z,31.50
2022-08-24T18:20:25.957Z,31.40
2022-08-24T18:22:53.727Z,31.30
2022-08-24T18:25:22.926Z,31.20
2022-08-24T18:27:48.576Z,31.10
2022-08-24T18:30:21.011Z,31.20
2022-08-24T18:32:47.666Z,31.10
2022-08-24T18:35:11.275Z,31.00
2022-08-24T18:37:34.997Z,31.00
2022-08-24T18:40:00.458Z,30.80
2022-08-24T18:42:27.993Z,30.80
2022-08-24T18:44:51.659Z,30.70
2022-08-24T18:47:15.625Z,30.70
2022-08-24T18:49:39.202Z,30.70
2022-08-24T18:52:04.308Z,30.60
2022-08-24T18:54:41.462Z,30.60
2022-08-24T18:57:08.726Z,30.50
2022-08-24T18:59:32.472Z,30.50
2022-08-24T19:02:13.751Z,30.50
2022-08-24T19:04:43.572Z,30.40
2022-08-24T19:07:07.171Z,30.40
2022-08-24T19:09:34.353Z,30.10
2022-08-24T19:11:58.358Z,30.10
2022-08-24T19:14:23.673Z,30.10
2022-08-24T19:16:48.695Z,29.90
2022-08-24T19:19:15.250Z,29.90
2022-08-24T19:21:41.447Z,29.80
2022-08-24T19:24:07.974Z,29.80
2022-08-24T19:26:32.365Z,29.70
2022-08-24T19:28:57.156Z,29.60
2022-08-24T19:31:25.624Z,29.60
2022-08-24T19:33:52.039Z,29.40
2022-08-24T19:36:16.352Z,29.40
2022-08-24T19:38:40.212Z,29.30
2022-08-24T19:41:12.601Z,29.50
2022-08-24T19:43:57.860Z,29.30
2022-08-24T19:46:22.218Z,29.20
2022-08-24T19:48:45.775Z,29.20
2022-08-24T19:51:12.064Z,29.30
2022-08-24T19:53:38.128Z,29.30
2022-08-24T19:56:03.674Z,29.50
2022-08-24T19:58:36.936Z,29.30
2022-08-24T20:01:07.245Z,29.30
2022-08-24T20:03:32.391Z,29.30
2022-08-24T20:05:56.218Z,29.30
2022-08-24T20:08:20.353Z,29.30
2022-08-24T20:10:43.927Z,29.20
2022-08-24T20:13:09.077Z,29.30
2022-08-24T20:15:34.435Z,29.30
2022-08-24T20:17:59.461Z,29.10
2022-08-24T20:20:26.258Z,29.10
2022-08-24T20:22:49.959Z,29.10
2022-08-24T20:25:14.770Z,28.90
2022-08-24T20:27:39.103Z,29.00
2022-08-24T20:30:03.029Z,29.00
2022-08-24T20:32:27.904Z,28.90
2022-08-24T20:34:51.815Z,29.00
2022-08-24T20:37:21.531Z,29.00
2022-08-24T20:39:45.153Z,28.90
2022-08-24T20:42:14.888Z,28.90
2022-08-24T20:44:40.132Z,28.80
2022-08-24T20:47:04.342Z,28.90
2022-08-24T20:49:28.734Z,28.90
2022-08-24T20:51:52.591Z,28.80
2022-08-24T20:54:18.096Z,28.90
2022-08-24T20:56:42.144Z,28.80
2022-08-24T20:59:10.155Z,28.70
2022-08-24T21:01:34.808Z,28.80
2022-08-24T21:04:04.234Z,28.70
2022-08-24T21:06:28.868Z,28.70
2022-08-24T21:08:54.288Z,28.60
2022-08-24T21:11:20.533Z,28.70
2022-08-24T21:13:44.188Z,28.60
2022-08-24T21:16:09.060Z,28.40
2022-08-24T21:18:32.746Z,28.70
2022-08-24T21:21:03.777Z,28.60
2022-08-24T21:23:28.366Z,28.30
2022-08-24T21:25:52.443Z,28.50
2022-08-24T21:28:18.133Z,28.40
2022-08-24T21:30:41.687Z,28.50
2022-08-24T21:33:24.562Z,28.40
2022-08-24T21:35:48.718Z,28.40
2022-08-24T21:38:13.830Z,28.20
2022-08-24T21:40:39.017Z,28.30
2022-08-24T21:43:02.831Z,28.40
2022-08-24T21:45:37.783Z,28.30
2022-08-24T21:48:01.722Z,28.20
2022-08-24T21:50:25.911Z,28.00
2022-08-24T21:52:51.230Z,28.20
2022-08-24T21:55:17.367Z,28.10
2022-08-24T21:57:41.708Z,28.00
2022-08-24T22:00:09.309Z,28.00
2022-08-24T22:02:34.317Z,27.90
2022-08-24T22:04:57.966Z,28.00
2022-08-24T22:07:21.636Z,27.90
2022-08-24T22:09:45.373Z,27.70
2022-08-24T22:12:09.682Z,27.80
2022-08-24T22:14:33.454Z,27.80
2022-08-24T22:16:57.269Z,27.90
2022-08-24T22:19:22.341Z,27.70
2022-08-24T22:21:48.094Z,27.80
2022-08-24T22:24:12.591Z,27.70
2022-08-24T22:26:37.431Z,27.60
2022-08-24T22:29:02.320Z,27.60
2022-08-24T22:31:28.987Z,27.60
2022-08-24T22:33:52.673Z,27.50
2022-08-24T22:36:18.904Z,27.50
2022-08-24T22:38:42.520Z,27.50
2022-08-24T22:41:06.241Z,27.50
2022-08-24T22:43:51.230Z,27.40
2022-08-24T22:46:15.465Z,27.40
2022-08-24T22:48:39.131Z,27.40
2022-08-24T22:51:03.438Z,27.40
2022-08-24T22:53:28.638Z,27.40
2022-08-24T22:55:52.254Z,27.30
2022-08-24T22:58:15.970Z,27.20
2022-08-24T23:00:40.892Z,27.30
2022-08-24T23:03:05.797Z,27.20
2022-08-24T23:05:29.578Z,27.30
2022-08-24T23:07:53.172Z,27.10
2022-08-24T23:10:18.345Z,27.00
2022-08-24T23:12:42.026Z,26.90
2022-08-24T23:15:06.880Z,26.90
2022-08-24T23:17:30.547Z,26.90
2022-08-24T23:20:06.710Z,26.70
2022-08-24T23:22:33.674Z,26.70
2022-08-24T23:24:58.463Z,26.60
2022-08-24T23:27:23.779Z,26.30
2022-08-24T23:29:49.470Z,26.30
2022-08-24T23:32:17.907Z,26.30
2022-08-24T23:34:42.376Z,26.10
2022-08-24T23:37:06.853Z,26.10
2022-08-24T23:39:30.730Z,26.10
2022-08-24T23:41:54.640Z,26.10
2022-08-24T23:44:25.861Z,25.90
2022-08-24T23:46:50.224Z,26.10
2022-08-24T23:49:15.669Z,26.00
2022-08-24T23:51:39.675Z,25.90
2022-08-24T23:54:05.030Z,25.80
2022-08-24T23:56:32.079Z,25.70
2022-08-24T23:58:57.011Z,25.60
